sensor_id;sensor_type;location;lat;lon;timestamp;pressure;altitude;pressure_sealevel;temperature;humidity
50166;BME280;36071;48.140;11.516;2023-04-21T00:00:54;95170.0;;;6.9;85.4
50166;BME280;36071;48.140;11.516;2023-04-21T00:05:54;95160.0;;;6.9;85.1
50166;BME280;36071;48.140;11.516;2023-04-21T00:10:54;95150.0;;;6.8;85.4
50166;BME280;36071;48.140;11.516;2023-04-21T00:15:54;95150.0;;;6.8;85.8
50166;BME280;36071;48.140;11.516;2023-04-21T00:20:54;95160.0;;;6.8;85.7
50166;BME280;36071;48.140;11.516;2023-04-21T00:25:54;95160.0;;;6.8;85.9
50166;BME280;36071;48.140;11.516;2023-04-21T00:30:54;95150.0;;;6.7;86.7
50166;BME280;36071;48.140;11.516;2023-04-21T00:35:54;95150.0;;;6.8;86.7
50166;BME280;36071;48.140;11.516;2023-04-21T00:40:54;95140.0;;;6.8;86.5
50166;BME280;36071;48.140;11.516;2023-04-21T00:45:54;95140.0;;;6.8;86.2
50166;BME280;36071;48.140;11.516;2023-04-21T00:50:54;95130.0;;;6.8;85.7
50166;BME280;36071;48.140;11.516;2023-04-21T00:55:54;95130.0;;;6.8;86.5
50166;BME280;36071;48.140;11.516;2023-04-21T01:00:54;95120.0;;;6.8;86.2
50166;BME280;36071;48.140;11.516;2023-04-21T01:05:54;95120.0;;;6.8;86.4
50166;BME280;36071;48.140;11.516;2023-04-21T01:10:54;95120.0;;;6.7;87.1
50166;BME280;36071;48.140;11.516;2023-04-21T01:15:54;95120.0;;;6.9;86.4
50166;BME280;36071;48.140;11.516;2023-04-21T01:20:54;95120.0;;;6.9;85.8
50166;BME280;36071;48.140;11.516;2023-04-21T01:25:54;95120.0;;;6.8;86.7
50166;BME280;36071;48.140;11.516;2023-04-21T01:30:54;95120.0;;;6.9;86.2
50166;BME280;36071;48.140;11.516;2023-04-21T01:35:54;95120.0;;;6.9;86.3
50166;BME280;36071;48.140;11.516;2023-04-21T01:40:54;95120.0;;;6.9;87.4
50166;BME280;36071;48.140;11.516;2023-04-21T01:45:54;95130.0;;;6.9;86.4
50166;BME280;36071;48.140;11.516;2023-04-21T01:55:54;95120.0;;;6.9;86.2
50166;BME280;36071;48.140;11.516;2023-04-21T02:00:54;95120.0;;;6.9;86.0
50166;BME280;36071;48.140;11.516;2023-04-21T02:05:54;95130.0;;;6.9;86.3
50166;BME280;36071;48.140;11.516;2023-04-21T02:10:54;95120.0;;;6.9;87.0
50166;BME280;36071;48.140;11.516;2023-04-21T02:15:54;95130.0;;;6.9;86.8
50166;BME280;36071;48.140;11.516;2023-04-21T02:20:54;95120.0;;;6.9;86.7
50166;BME280;36071;48.140;11.516;2023-04-21T02:25:54;95110.0;;;6.9;87.0
50166;BME280;36071;48.140;11.516;2023-04-21T02:30:54;95100.0;;;7.0;86.7
50166;BME280;36071;48.140;11.516;2023-04-21T02:35:54;95100.0;;;7.0;85.9
50166;BME280;36071;48.140;11.516;2023-04-21T02:40:55;95100.0;;;6.9;86.5
50166;BME280;36071;48.140;11.516;2023-04-21T02:45:54;95090.0;;;6.9;86.2
50166;BME280;36071;48.140;11.516;2023-04-21T02:50:54;95100.0;;;6.9;86.4
50166;BME280;36071;48.140;11.516;2023-04-21T02:55:54;95090.0;;;6.9;86.8
50166;BME280;36071;48.140;11.516;2023-04-21T03:00:54;95080.0;;;6.9;87.6
50166;BME280;36071;48.140;11.516;2023-04-21T03:10:54;95090.0;;;6.9;88.2
50166;BME280;36071;48.140;11.516;2023-04-21T03:15:54;95090.0;;;6.9;87.0
50166;BME280;36071;48.140;11.516;2023-04-21T03:20:57;95090.0;;;6.9;86.9
50166;BME280;36071;48.140;11.516;2023-04-21T03:25:54;95090.0;;;6.9;87.2
50166;BME280;36071;48.140;11.516;2023-04-21T03:30:54;95110.0;;;6.9;87.3
50166;BME280;36071;48.140;11.516;2023-04-21T03:35:54;95110.0;;;6.9;87.6
50166;BME280;36071;48.140;11.516;2023-04-21T03:40:54;95100.0;;;6.9;87.4
50166;BME280;36071;48.140;11.516;2023-04-21T03:45:54;95100.0;;;6.9;86.7
50166;BME280;36071;48.140;11.516;2023-04-21T03:50:54;95090.0;;;6.9;87.3
50166;BME280;36071;48.140;11.516;2023-04-21T03:55:54;95090.0;;;6.9;88.2
50166;BME280;36071;48.140;11.516;2023-04-21T04:05:54;95080.0;;;6.8;88.8
50166;BME280;36071;48.140;11.516;2023-04-21T04:10:54;95090.0;;;6.8;88.3
50166;BME280;36071;48.140;11.516;2023-04-21T04:15:54;95100.0;;;6.8;87.9
50166;BME280;36071;48.140;11.516;2023-04-21T04:20:54;95110.0;;;6.8;87.3
50166;BME280;36071;48.140;11.516;2023-04-21T04:25:54;95100.0;;;6.8;87.4
50166;BME280;36071;48.140;11.516;2023-04-21T04:30:54;95110.0;;;6.8;87.4
50166;BME280;36071;48.140;11.516;2023-04-21T04:35:54;95110.0;;;6.8;87.7
50166;BME280;36071;48.140;11.516;2023-04-21T04:40:54;95110.0;;;6.7;87.4
50166;BME280;36071;48.140;11.516;2023-04-21T04:50:54;95110.0;;;6.8;87.3
50166;BME280;36071;48.140;11.516;2023-04-21T04:55:54;95110.0;;;6.7;88.0
50166;BME280;36071;48.140;11.516;2023-04-21T05:00:54;95120.0;;;6.8;87.7
50166;BME280;36071;48.140;11.516;2023-04-21T05:05:54;95130.0;;;6.8;87.1
50166;BME280;36071;48.140;11.516;2023-04-21T05:10:54;95120.0;;;6.8;87.3
50166;BME280;36071;48.140;11.516;2023-04-21T05:15:55;95140.0;;;6.8;87.2
50166;BME280;36071;48.140;11.516;2023-04-21T05:20:54;95140.0;;;6.9;87.3
50166;BME280;36071;48.140;11.516;2023-04-21T05:25:54;95140.0;;;6.9;86.9
50166;BME280;36071;48.140;11.516;2023-04-21T05:30:54;95130.0;;;6.9;87.4
50166;BME280;36071;48.140;11.516;2023-04-21T05:35:54;95130.0;;;7.0;86.8
50166;BME280;36071;48.140;11.516;2023-04-21T05:40:54;95130.0;;;7.1;86.2
50166;BME280;36071;48.140;11.516;2023-04-21T05:50:54;95130.0;;;7.2;85.5
50166;BME280;36071;48.140;11.516;2023-04-21T05:55:54;95120.0;;;7.3;84.7
50166;BME280;36071;48.140;11.516;2023-04-21T06:00:54;95120.0;;;7.4;85.3
50166;BME280;36071;48.140;11.516;2023-04-21T06:05:54;95130.0;;;7.5;83.5
50166;BME280;36071;48.140;11.516;2023-04-21T06:10:54;95130.0;;;7.6;82.8
50166;BME280;36071;48.140;11.516;2023-04-21T06:15:54;95130.0;;;7.5;82.9
50166;BME280;36071;48.140;11.516;2023-04-21T06:20:54;95130.0;;;7.7;82.1
50166;BME280;36071;48.140;11.516;2023-04-21T06:25:57;95120.0;;;8.0;80.6
50166;BME280;36071;48.140;11.516;2023-04-21T06:30:54;95110.0;;;8.2;78.2
50166;BME280;36071;48.140;11.516;2023-04-21T06:35:54;95110.0;;;8.4;76.8
50166;BME280;36071;48.140;11.516;2023-04-21T06:40:54;95120.0;;;8.5;75.4
50166;BME280;36071;48.140;11.516;2023-04-21T06:45:54;95110.0;;;8.6;74.4
50166;BME280;36071;48.140;11.516;2023-04-21T06:50:54;95110.0;;;8.8;75.4
50166;BME280;36071;48.140;11.516;2023-04-21T06:55:54;95100.0;;;9.0;74.9
50166;BME280;36071;48.140;11.516;2023-04-21T07:00:54;95100.0;;;9.1;73.7
50166;BME280;36071;48.140;11.516;2023-04-21T07:05:54;95100.0;;;9.1;72.7
50166;BME280;36071;48.140;11.516;2023-04-21T07:10:54;95100.0;;;9.3;72.1
50166;BME280;36071;48.140;11.516;2023-04-21T07:15:54;95090.0;;;9.3;71.1
50166;BME280;36071;48.140;11.516;2023-04-21T07:20:54;95100.0;;;9.3;71.5
50166;BME280;36071;48.140;11.516;2023-04-21T07:25:54;95090.0;;;9.3;70.9
50166;BME280;36071;48.140;11.516;2023-04-21T07:30:54;95090.0;;;9.4;71.4
50166;BME280;36071;48.140;11.516;2023-04-21T07:35:54;95100.0;;;9.5;70.6
50166;BME280;36071;48.140;11.516;2023-04-21T07:40:54;95090.0;;;9.6;70.3
50166;BME280;36071;48.140;11.516;2023-04-21T07:45:54;95100.0;;;9.8;68.9
50166;BME280;36071;48.140;11.516;2023-04-21T07:50:54;95110.0;;;10.0;67.7
50166;BME280;36071;48.140;11.516;2023-04-21T07:55:54;95100.0;;;10.3;66.7
50166;BME280;36071;48.140;11.516;2023-04-21T08:00:54;95110.0;;;10.5;64.4
50166;BME280;36071;48.140;11.516;2023-04-21T08:05:54;95110.0;;;11.0;63.4
50166;BME280;36071;48.140;11.516;2023-04-21T08:10:54;95050.0;;;11.5;60.5
50166;BME280;36071;48.140;11.516;2023-04-21T08:15:54;95110.0;;;12.3;59.7
50166;BME280;36071;48.140;11.516;2023-04-21T08:20:54;95050.0;;;12.2;58.9
50166;BME280;36071;48.140;11.516;2023-04-21T08:25:54;95110.0;;;13.0;56.6
50166;BME280;36071;48.140;11.516;2023-04-21T08:30:54;95110.0;;;13.3;55.3
50166;BME280;36071;48.140;11.516;2023-04-21T08:35:54;95100.0;;;13.6;56.0
50166;BME280;36071;48.140;11.516;2023-04-21T08:40:54;95100.0;;;13.3;55.3
50166;BME280;36071;48.140;11.516;2023-04-21T08:45:54;95100.0;;;13.8;54.3
50166;BME280;36071;48.140;11.516;2023-04-21T08:50:54;95100.0;;;14.1;53.1
50166;BME280;36071;48.140;11.516;2023-04-21T08:55:54;95100.0;;;14.5;53.9
50166;BME280;36071;48.140;11.516;2023-04-21T09:00:54;95100.0;;;15.2;51.2
50166;BME280;36071;48.140;11.516;2023-04-21T09:05:56;95100.0;;;15.0;50.1
50166;BME280;36071;48.140;11.516;2023-04-21T09:10:54;95090.0;;;15.2;52.6
50166;BME280;36071;48.140;11.516;2023-04-21T09:15:54;95080.0;;;15.0;52.7
50166;BME280;36071;48.140;11.516;2023-04-21T09:21:04;95080.0;;;15.1;51.5
50166;BME280;36071;48.140;11.516;2023-04-21T09:25:54;95070.0;;;15.2;50.5
50166;BME280;36071;48.140;11.516;2023-04-21T09:30:54;95080.0;;;15.9;51.7
50166;BME280;36071;48.140;11.516;2023-04-21T09:35:54;95080.0;;;16.4;51.6
50166;BME280;36071;48.140;11.516;2023-04-21T09:40:55;95070.0;;;16.8;49.7
50166;BME280;36071;48.140;11.516;2023-04-21T09:45:54;95080.0;;;17.2;50.0
50166;BME280;36071;48.140;11.516;2023-04-21T09:50:54;95070.0;;;17.8;47.3
50166;BME280;36071;48.140;11.516;2023-04-21T09:55:54;95070.0;;;18.3;46.0
50166;BME280;36071;48.140;11.516;2023-04-21T10:00:54;95030.0;;;18.0;44.7
50166;BME280;36071;48.140;11.516;2023-04-21T10:05:54;95070.0;;;18.8;45.5
50166;BME280;36071;48.140;11.516;2023-04-21T10:10:54;95070.0;;;19.0;44.5
50166;BME280;36071;48.140;11.516;2023-04-21T10:16:00;95060.0;;;18.9;42.5
50166;BME280;36071;48.140;11.516;2023-04-21T10:20:55;95060.0;;;19.1;43.8
50166;BME280;36071;48.140;11.516;2023-04-21T10:26:01;95060.0;;;19.5;43.3
50166;BME280;36071;48.140;11.516;2023-04-21T10:31:00;95060.0;;;19.8;43.8
50166;BME280;36071;48.140;11.516;2023-04-21T10:35:58;95050.0;;;20.4;42.2
50166;BME280;36071;48.140;11.516;2023-04-21T10:40:54;95050.0;;;21.0;41.5
50166;BME280;36071;48.140;11.516;2023-04-21T10:45:54;95050.0;;;20.6;41.6
50166;BME280;36071;48.140;11.516;2023-04-21T10:50:54;95050.0;;;21.0;41.5
50166;BME280;36071;48.140;11.516;2023-04-21T10:55:54;95050.0;;;21.0;42.1
50166;BME280;36071;48.140;11.516;2023-04-21T11:00:54;95040.0;;;21.1;41.6
50166;BME280;36071;48.140;11.516;2023-04-21T11:05:54;95030.0;;;21.2;41.5
50166;BME280;36071;48.140;11.516;2023-04-21T11:10:54;95030.0;;;21.4;41.8
50166;BME280;36071;48.140;11.516;2023-04-21T11:15:55;95020.0;;;21.5;41.8
50166;BME280;36071;48.140;11.516;2023-04-21T11:20:55;95010.0;;;22.2;40.5
50166;BME280;36071;48.140;11.516;2023-04-21T11:25:54;95010.0;;;22.1;39.6
50166;BME280;36071;48.140;11.516;2023-04-21T11:30:54;95010.0;;;22.1;41.6
50166;BME280;36071;48.140;11.516;2023-04-21T11:35:54;95010.0;;;21.7;42.7
50166;BME280;36071;48.140;11.516;2023-04-21T11:40:54;95000.0;;;22.0;41.7
50166;BME280;36071;48.140;11.516;2023-04-21T11:45:54;95000.0;;;21.9;41.9
50166;BME280;36071;48.140;11.516;2023-04-21T11:50:54;94980.0;;;22.1;40.9
50166;BME280;36071;48.140;11.516;2023-04-21T11:55:54;95010.0;;;22.4;41.2
50166;BME280;36071;48.140;11.516;2023-04-21T12:00:54;95000.0;;;22.3;41.4
50166;BME280;36071;48.140;11.516;2023-04-21T12:05:54;95000.0;;;22.5;41.2
50166;BME280;36071;48.140;11.516;2023-04-21T12:10:54;95000.0;;;22.9;40.5
50166;BME280;36071;48.140;11.516;2023-04-21T12:15:54;95000.0;;;22.9;40.6
50166;BME280;36071;48.140;11.516;2023-04-21T12:20:54;95000.0;;;23.0;40.3
50166;BME280;36071;48.140;11.516;2023-04-21T12:25:54;95000.0;;;23.1;40.2
50166;BME280;36071;48.140;11.516;2023-04-21T12:30:54;95010.0;;;23.0;40.5
50166;BME280;36071;48.140;11.516;2023-04-21T12:35:54;95000.0;;;23.1;40.7
50166;BME280;36071;48.140;11.516;2023-04-21T12:40:54;94990.0;;;23.0;40.5
50166;BME280;36071;48.140;11.516;2023-04-21T12:45:54;94990.0;;;23.4;39.5
50166;BME280;36071;48.140;11.516;2023-04-21T12:50:54;94990.0;;;23.3;37.5
50166;BME280;36071;48.140;11.516;2023-04-21T12:55:54;94980.0;;;23.1;36.8
50166;BME280;36071;48.140;11.516;2023-04-21T13:00:54;94980.0;;;23.0;36.8
50166;BME280;36071;48.140;11.516;2023-04-21T13:05:54;94980.0;;;22.8;36.6
50166;BME280;36071;48.140;11.516;2023-04-21T13:10:54;94980.0;;;22.8;34.2
50166;BME280;36071;48.140;11.516;2023-04-21T13:15:54;94980.0;;;22.7;35.6
50166;BME280;36071;48.140;11.516;2023-04-21T13:20:54;94980.0;;;22.9;35.3
50166;BME280;36071;48.140;11.516;2023-04-21T13:25:54;94970.0;;;22.9;34.4
50166;BME280;36071;48.140;11.516;2023-04-21T13:30:54;94970.0;;;22.9;34.0
50166;BME280;36071;48.140;11.516;2023-04-21T13:35:54;94970.0;;;22.9;33.9
50166;BME280;36071;48.140;11.516;2023-04-21T13:40:54;94960.0;;;23.0;33.8
50166;BME280;36071;48.140;11.516;2023-04-21T13:45:55;94950.0;;;23.1;34.8
50166;BME280;36071;48.140;11.516;2023-04-21T13:50:54;94940.0;;;23.1;34.1
50166;BME280;36071;48.140;11.516;2023-04-21T13:55:54;94950.0;;;23.1;33.9
50166;BME280;36071;48.140;11.516;2023-04-21T14:00:54;94950.0;;;22.8;35.0
50166;BME280;36071;48.140;11.516;2023-04-21T14:05:54;94940.0;;;23.1;34.5
50166;BME280;36071;48.140;11.516;2023-04-21T14:10:54;94930.0;;;23.2;35.3
50166;BME280;36071;48.140;11.516;2023-04-21T14:15:54;94930.0;;;23.1;35.2
50166;BME280;36071;48.140;11.516;2023-04-21T14:20:54;94920.0;;;23.1;36.0
50166;BME280;36071;48.140;11.516;2023-04-21T14:25:54;94910.0;;;23.1;34.0
50166;BME280;36071;48.140;11.516;2023-04-21T14:30:54;94910.0;;;23.0;32.9
50166;BME280;36071;48.140;11.516;2023-04-21T14:35:54;94910.0;;;22.8;32.8
50166;BME280;36071;48.140;11.516;2023-04-21T14:40:54;94900.0;;;22.7;32.5
50166;BME280;36071;48.140;11.516;2023-04-21T14:45:54;94890.0;;;22.7;33.6
50166;BME280;36071;48.140;11.516;2023-04-21T14:50:54;94890.0;;;22.8;33.7
50166;BME280;36071;48.140;11.516;2023-04-21T14:55:54;94890.0;;;22.7;34.0
50166;BME280;36071;48.140;11.516;2023-04-21T15:00:54;94890.0;;;22.7;33.0
50166;BME280;36071;48.140;11.516;2023-04-21T15:05:54;94880.0;;;22.8;33.4
50166;BME280;36071;48.140;11.516;2023-04-21T15:10:54;94890.0;;;22.5;32.6
50166;BME280;36071;48.140;11.516;2023-04-21T15:15:54;94880.0;;;22.4;33.0
50166;BME280;36071;48.140;11.516;2023-04-21T15:20:54;94880.0;;;22.5;34.4
50166;BME280;36071;48.140;11.516;2023-04-21T15:25:54;94880.0;;;22.5;34.3
50166;BME280;36071;48.140;11.516;2023-04-21T15:30:54;94870.0;;;22.3;33.7
50166;BME280;36071;48.140;11.516;2023-04-21T15:35:54;94870.0;;;22.3;34.8
50166;BME280;36071;48.140;11.516;2023-04-21T15:40:54;94860.0;;;22.2;35.1
50166;BME280;36071;48.140;11.516;2023-04-21T15:45:54;94860.0;;;22.0;33.5
50166;BME280;36071;48.140;11.516;2023-04-21T15:50:54;94860.0;;;21.8;32.8
50166;BME280;36071;48.140;11.516;2023-04-21T15:55:54;94850.0;;;21.7;34.1
50166;BME280;36071;48.140;11.516;2023-04-21T16:00:54;94850.0;;;21.6;35.1
50166;BME280;36071;48.140;11.516;2023-04-21T16:05:54;94840.0;;;21.5;35.2
50166;BME280;36071;48.140;11.516;2023-04-21T16:10:54;94840.0;;;21.4;35.3
50166;BME280;36071;48.140;11.516;2023-04-21T16:15:54;94850.0;;;21.3;35.6
50166;BME280;36071;48.140;11.516;2023-04-21T16:20:54;94840.0;;;21.3;35.6
50166;BME280;36071;48.140;11.516;2023-04-21T16:25:55;94840.0;;;21.0;36.2
50166;BME280;36071;48.140;11.516;2023-04-21T16:30:54;94840.0;;;20.8;36.1
50166;BME280;36071;48.140;11.516;2023-04-21T16:35:54;94840.0;;;20.7;36.4
50166;BME280;36071;48.140;11.516;2023-04-21T16:40:54;94840.0;;;20.5;36.4
50166;BME280;36071;48.140;11.516;2023-04-21T16:45:54;94840.0;;;20.3;36.4
50166;BME280;36071;48.140;11.516;2023-04-21T16:50:54;94850.0;;;20.2;36.7
50166;BME280;36071;48.140;11.516;2023-04-21T16:55:54;94850.0;;;20.0;37.2
50166;BME280;36071;48.140;11.516;2023-04-21T17:00:54;94850.0;;;20.0;37.0
50166;BME280;36071;48.140;11.516;2023-04-21T17:05:54;94840.0;;;19.9;37.2
50166;BME280;36071;48.140;11.516;2023-04-21T17:10:54;94850.0;;;19.7;37.1
50166;BME280;36071;48.140;11.516;2023-04-21T17:15:54;94850.0;;;19.5;37.9
50166;BME280;36071;48.140;11.516;2023-04-21T17:20:54;94860.0;;;19.5;37.9
50166;BME280;36071;48.140;11.516;2023-04-21T17:25:54;94860.0;;;19.5;38.5
50166;BME280;36071;48.140;11.516;2023-04-21T17:30:54;94850.0;;;19.5;38.6
50166;BME280;36071;48.140;11.516;2023-04-21T17:35:54;94850.0;;;19.4;39.2
50166;BME280;36071;48.140;11.516;2023-04-21T17:40:54;94850.0;;;19.4;39.1
50166;BME280;36071;48.140;11.516;2023-04-21T17:45:54;94860.0;;;19.4;39.5
50166;BME280;36071;48.140;11.516;2023-04-21T17:50:54;94860.0;;;19.3;39.5
50166;BME280;36071;48.140;11.516;2023-04-21T17:55:54;94860.0;;;19.2;40.0
50166;BME280;36071;48.140;11.516;2023-04-21T18:00:54;94870.0;;;19.1;40.4
50166;BME280;36071;48.140;11.516;2023-04-21T18:05:54;94870.0;;;19.0;40.8
50166;BME280;36071;48.140;11.516;2023-04-21T18:10:54;94880.0;;;18.9;40.0
50166;BME280;36071;48.140;11.516;2023-04-21T18:15:54;94880.0;;;18.8;40.1
50166;BME280;36071;48.140;11.516;2023-04-21T18:20:54;94880.0;;;18.8;40.8
50166;BME280;36071;48.140;11.516;2023-04-21T18:25:54;94900.0;;;18.7;40.5
50166;BME280;36071;48.140;11.516;2023-04-21T18:30:54;94910.0;;;18.6;40.5
50166;BME280;36071;48.140;11.516;2023-04-21T18:35:54;94910.0;;;18.5;40.8
50166;BME280;36071;48.140;11.516;2023-04-21T18:40:54;94920.0;;;18.4;41.4
50166;BME280;36071;48.140;11.516;2023-04-21T18:45:54;94920.0;;;18.3;42.1
50166;BME280;36071;48.140;11.516;2023-04-21T18:50:54;94920.0;;;18.2;42.2
50166;BME280;36071;48.140;11.516;2023-04-21T18:55:54;94930.0;;;18.1;42.6
50166;BME280;36071;48.140;11.516;2023-04-21T19:00:54;94940.0;;;18.1;43.0
50166;BME280;36071;48.140;11.516;2023-04-21T19:05:54;94940.0;;;18.0;43.2
50166;BME280;36071;48.140;11.516;2023-04-21T19:10:54;94950.0;;;18.0;43.8
50166;BME280;36071;48.140;11.516;2023-04-21T19:15:54;94960.0;;;17.9;44.0
50166;BME280;36071;48.140;11.516;2023-04-21T19:20:54;94990.0;;;17.6;44.6
50166;BME280;36071;48.140;11.516;2023-04-21T19:25:54;95010.0;;;17.2;44.6
50166;BME280;36071;48.140;11.516;2023-04-21T19:30:54;95020.0;;;16.7;44.5
50166;BME280;36071;48.140;11.516;2023-04-21T19:35:54;95030.0;;;16.4;44.0
50166;BME280;36071;48.140;11.516;2023-04-21T19:40:55;95030.0;;;16.2;43.6
50166;BME280;36071;48.140;11.516;2023-04-21T19:45:54;95040.0;;;16.0;43.5
50166;BME280;36071;48.140;11.516;2023-04-21T19:55:54;95030.0;;;15.8;43.8
50166;BME280;36071;48.140;11.516;2023-04-21T20:00:54;95030.0;;;15.7;44.1
50166;BME280;36071;48.140;11.516;2023-04-21T20:05:54;95030.0;;;15.7;44.0
50166;BME280;36071;48.140;11.516;2023-04-21T20:10:54;95030.0;;;15.6;44.1
50166;BME280;36071;48.140;11.516;2023-04-21T20:15:54;95020.0;;;15.5;44.1
50166;BME280;36071;48.140;11.516;2023-04-21T20:20:54;95020.0;;;15.5;44.3
50166;BME280;36071;48.140;11.516;2023-04-21T20:25:54;95020.0;;;15.4;44.6
50166;BME280;36071;48.140;11.516;2023-04-21T20:45:54;95000.0;;;15.3;46.6
50166;BME280;36071;48.140;11.516;2023-04-21T20:50:54;95000.0;;;15.1;46.9
50166;BME280;36071;48.140;11.516;2023-04-21T20:55:54;95010.0;;;15.0;47.1
50166;BME280;36071;48.140;11.516;2023-04-21T21:00:54;95000.0;;;15.0;47.3
50166;BME280;36071;48.140;11.516;2023-04-21T21:05:54;95010.0;;;15.0;47.4
50166;BME280;36071;48.140;11.516;2023-04-21T21:10:59;95010.0;;;14.9;48.6
50166;BME280;36071;48.140;11.516;2023-04-21T21:15:54;95000.0;;;14.9;48.1
50166;BME280;36071;48.140;11.516;2023-04-21T21:20:54;94990.0;;;14.8;48.4
50166;BME280;36071;48.140;11.516;2023-04-21T21:25:54;94990.0;;;14.7;48.8
50166;BME280;36071;48.140;11.516;2023-04-21T21:30:54;94990.0;;;14.5;49.2
50166;BME280;36071;48.140;11.516;2023-04-21T21:35:54;94990.0;;;14.5;49.3
50166;BME280;36071;48.140;11.516;2023-04-21T21:40:54;94980.0;;;14.4;49.7
50166;BME280;36071;48.140;11.516;2023-04-21T21:45:54;94980.0;;;14.4;49.6
50166;BME280;36071;48.140;11.516;2023-04-21T21:50:54;94980.0;;;14.4;50.0
50166;BME280;36071;48.140;11.516;2023-04-21T21:55:54;94990.0;;;14.3;50.2
50166;BME280;36071;48.140;11.516;2023-04-21T22:00:54;94980.0;;;14.3;50.4
50166;BME280;36071;48.140;11.516;2023-04-21T22:10:54;95000.0;;;14.2;50.4
50166;BME280;36071;48.140;11.516;2023-04-21T22:15:54;95000.0;;;14.1;50.7
50166;BME280;36071;48.140;11.516;2023-04-21T22:20:54;95000.0;;;14.0;51.1
50166;BME280;36071;48.140;11.516;2023-04-21T22:25:54;94990.0;;;13.9;51.5
50166;BME280;36071;48.140;11.516;2023-04-21T22:30:54;94990.0;;;13.7;52.4
50166;BME280;36071;48.140;11.516;2023-04-21T22:40:54;94990.0;;;13.6;52.2
50166;BME280;36071;48.140;11.516;2023-04-21T22:46:11;95000.0;;;13.6;52.0
50166;BME280;36071;48.140;11.516;2023-04-21T22:50:54;94990.0;;;13.4;52.3
50166;BME280;36071;48.140;11.516;2023-04-21T22:55:54;94990.0;;;13.4;52.6
50166;BME280;36071;48.140;11.516;2023-04-21T23:00:54;94990.0;;;13.3;52.5
50166;BME280;36071;48.140;11.516;2023-04-21T23:05:54;94990.0;;;13.2;52.7
50166;BME280;36071;48.140;11.516;2023-04-21T23:10:54;94980.0;;;13.2;53.2
50166;BME280;36071;48.140;11.516;2023-04-21T23:15:54;94980.0;;;13.1;53.1
50166;BME280;36071;48.140;11.516;2023-04-21T23:20:54;94980.0;;;13.0;53.4
50166;BME280;36071;48.140;11.516;2023-04-21T23:25:54;94980.0;;;13.0;53.2
50166;BME280;36071;48.140;11.516;2023-04-21T23:30:54;94990.0;;;12.9;53.5
50166;BME280;36071;48.140;11.516;2023-04-21T23:35:54;94990.0;;;12.9;53.8
50166;BME280;36071;48.140;11.516;2023-04-21T23:40:54;94990.0;;;12.9;54.1
50166;BME280;36071;48.140;11.516;2023-04-21T23:45:54;95000.0;;;12.8;53.9
50166;BME280;36071;48.140;11.516;2023-04-21T23:50:54;95000.0;;;12.8;53.2
50166;BME280;36071;48.140;11.516;2023-04-21T23:55:54;94970.0;;;12.5;53.5
